Terminal Aerodrome Forecast
Issued by NWS

Home | Current Version | Previous Version | Text Only | Print | Product List | Glossary On
Versions: 1 2 3 4 5 6 7 8 9 10 11 12 13
000
FTUS42 KTBW 222324
TAFRSW
TAF
KRSW 222324Z 2300/2324 28008KT P6SM VCSH SCT025 BKN100
     FM230300 29003KT P6SM FEW025 BKN100
     FM230800 30005KT 6SM BR BKN025 BKN100
     FM231300 28009KT P6SM SCT015 BKN100=

USA.gov is the U.S. government's official web portal to all federal, state and local government web resources and services.